Airfield :







YOU CAN JOIN US ON...

 
LOGIN :

Register | Disclaimer

   EN    FR    IT 

 









Legend :    VFR   Marginal VFR   IFR   Intensive IFR   Very Intensive IFR
Visi :
Ceiling :
>= 8 km
>= 3000ft
5 to 8 km
1000 to 3000 ft
1500m to 5 km
500 to 1000 ft
800 to 1500m
200 to 500 ft
< 800m
< 200 ft
Symbols :   Thunderstorms  Fog  Heavy snow  Heavy precipitations  Wind > 20 kt






- Airport Elevation : 16 ft
- IATA code : FDF


TFFF - Aime Cesaire

CURRENT METAR :
  • 091830Z AUTO 13012KT 9999 FEW031/// SCT038/// BKN047/// ///TCU 29/25 Q1014 TEMPO 10015G25KT 4000 SHRA

EXPIRED METARs :
  • 091800Z AUTO 10016KT 060V120 9999 SCT032 BKN040 BKN054 31/24 Q1014 TEMPO 10015G25KT 4000 SHRA SCT020TCU
  • 091730Z AUTO 10017KT 9999 FEW031 SCT041 BKN049 32/24 Q1015 TEMPO 10015G25KT 4000 SHRA SCT020TCU
  • 091700Z AUTO 10017KT 9999 BKN031 BKN042 BKN054 31/24 Q1015 TEMPO 10015G25KT 4000 SHRA SCT020TCU
  • 091630Z AUTO 10018KT 9999 FEW037 31/24 Q1015 TEMPO 10015G25KT 4000 SHRA SCT020TCU
  • 091600Z AUTO 10017KT 9999 BKN037 32/23 Q1015 TEMPO 10015G25KT 4000 SHRA SCT020TCU

TAF TAF TFFF
Valid from the 09 at 18:00 until the 10 at 18:00 UTC


091600Z 0918/1018 10014KT 9999 SCT030
PROB30
TEMPO 0918/0921 10015G25KT
PROB30
TEMPO 0918/0922 4000 SHRA SCT020TCU
PROB30
TEMPO 1007/1018 4000 SHRA BKN020TCU
TTZP FIR / North America



MET'MAP, your aeronautical weather chart ! - Copyright ORBIFLY December 2007 - Disclaimer

ORBIFLY MET'MAP TEAM :

Programming & Development : Alexandra Zaïnal
Concept & original design : Baudouin d'Aumeries
Assistance for programming : Marc-Olivier Méhu
Technical & hardware support : Manuel Goepfert

Contact : metmap@orbifly.com




SOURCES & CREDITS :

   NOAA